Terminal Aerodrome Forecast
Issued by NWS San Angelo, TX

Home | Current Version | Previous Version | Text Only | Print | Product List | Glossary On
Versions: 1 2 3 4 5 6 7 8 9 10 11 12 13 14 15 16 17 18
904
FTUS44 KSJT 231720
TAFABI
TAF
KABI 231720Z 2318/2418 32006KT P6SM FEW020 BKN080
     FM231900 16005KT P6SM VCTS BKN030CB OVC080
     FM240300 04005KT P6SM BKN050 OVC100
     FM241200 07005KT P6SM SCT010 OVC025
     FM241500 04005KT P6SM OVC050=

USA.gov is the U.S. government's official web portal to all federal, state and local government web resources and services.